sensor_id;sensor_type;location;lat;lon;timestamp;P1;durP1;ratioP1;P2;durP2;ratioP2
19940;SDS011;10132;50.864;5.176;2023-04-24T00:01:41;14.93;;;9.10;;
19940;SDS011;10132;50.864;5.176;2023-04-24T00:03:44;16.80;;;9.60;;
19940;SDS011;10132;50.864;5.176;2023-04-24T00:05:46;11.93;;;9.53;;
19940;SDS011;10132;50.864;5.176;2023-04-24T00:07:47;14.00;;;9.10;;
19940;SDS011;10132;50.864;5.176;2023-04-24T00:09:52;17.00;;;10.17;;
19940;SDS011;10132;50.864;5.176;2023-04-24T00:11:54;14.17;;;10.30;;
19940;SDS011;10132;50.864;5.176;2023-04-24T00:13:56;12.47;;;9.90;;
19940;SDS011;10132;50.864;5.176;2023-04-24T00:15:58;14.40;;;9.70;;
19940;SDS011;10132;50.864;5.176;2023-04-24T00:18:02;14.77;;;10.47;;
19940;SDS011;10132;50.864;5.176;2023-04-24T00:20:04;15.60;;;9.73;;
19940;SDS011;10132;50.864;5.176;2023-04-24T00:22:07;15.33;;;10.37;;
19940;SDS011;10132;50.864;5.176;2023-04-24T00:24:09;17.90;;;11.60;;
19940;SDS011;10132;50.864;5.176;2023-04-24T00:26:11;14.13;;;10.97;;
19940;SDS011;10132;50.864;5.176;2023-04-24T00:28:13;16.17;;;11.87;;
19940;SDS011;10132;50.864;5.176;2023-04-24T00:30:15;13.57;;;10.40;;
19940;SDS011;10132;50.864;5.176;2023-04-24T00:32:17;19.40;;;11.97;;
19940;SDS011;10132;50.864;5.176;2023-04-24T00:34:20;17.67;;;11.90;;
19940;SDS011;10132;50.864;5.176;2023-04-24T00:36:22;20.53;;;12.17;;
19940;SDS011;10132;50.864;5.176;2023-04-24T00:38:25;18.03;;;12.50;;
19940;SDS011;10132;50.864;5.176;2023-04-24T00:40:27;19.67;;;12.60;;
19940;SDS011;10132;50.864;5.176;2023-04-24T00:42:29;16.67;;;11.77;;
19940;SDS011;10132;50.864;5.176;2023-04-24T00:44:31;20.07;;;12.50;;
19940;SDS011;10132;50.864;5.176;2023-04-24T00:46:34;18.13;;;12.50;;
19940;SDS011;10132;50.864;5.176;2023-04-24T00:48:37;16.83;;;12.40;;
19940;SDS011;10132;50.864;5.176;2023-04-24T00:50:42;18.13;;;12.20;;
19940;SDS011;10132;50.864;5.176;2023-04-24T00:52:44;22.43;;;12.83;;
19940;SDS011;10132;50.864;5.176;2023-04-24T00:54:46;15.03;;;12.30;;
19940;SDS011;10132;50.864;5.176;2023-04-24T00:56:48;18.97;;;12.60;;
19940;SDS011;10132;50.864;5.176;2023-04-24T00:58:51;17.83;;;12.00;;
19940;SDS011;10132;50.864;5.176;2023-04-24T01:00:53;18.57;;;12.23;;
19940;SDS011;10132;50.864;5.176;2023-04-24T01:02:57;20.20;;;11.70;;
19940;SDS011;10132;50.864;5.176;2023-04-24T01:05:02;18.27;;;11.60;;
19940;SDS011;10132;50.864;5.176;2023-04-24T01:07:06;19.90;;;13.43;;
19940;SDS011;10132;50.864;5.176;2023-04-24T01:09:11;19.90;;;12.53;;
19940;SDS011;10132;50.864;5.176;2023-04-24T01:11:14;21.20;;;12.73;;
19940;SDS011;10132;50.864;5.176;2023-04-24T01:13:16;19.53;;;11.30;;
19940;SDS011;10132;50.864;5.176;2023-04-24T01:15:19;18.57;;;12.80;;
19940;SDS011;10132;50.864;5.176;2023-04-24T01:17:21;20.77;;;12.37;;
19940;SDS011;10132;50.864;5.176;2023-04-24T01:19:23;18.73;;;12.50;;
19940;SDS011;10132;50.864;5.176;2023-04-24T01:21:25;16.97;;;12.17;;
19940;SDS011;10132;50.864;5.176;2023-04-24T01:23:31;16.47;;;12.27;;
19940;SDS011;10132;50.864;5.176;2023-04-24T01:25:33;19.90;;;12.40;;
19940;SDS011;10132;50.864;5.176;2023-04-24T01:27:35;16.70;;;11.83;;
19940;SDS011;10132;50.864;5.176;2023-04-24T01:29:45;17.93;;;12.20;;
19940;SDS011;10132;50.864;5.176;2023-04-24T01:31:49;17.53;;;11.63;;
19940;SDS011;10132;50.864;5.176;2023-04-24T01:33:51;16.67;;;11.97;;
19940;SDS011;10132;50.864;5.176;2023-04-24T01:35:55;18.53;;;12.13;;
19940;SDS011;10132;50.864;5.176;2023-04-24T01:37:57;16.60;;;11.23;;
19940;SDS011;10132;50.864;5.176;2023-04-24T01:39:59;18.23;;;11.70;;
19940;SDS011;10132;50.864;5.176;2023-04-24T01:42:01;15.07;;;11.10;;
19940;SDS011;10132;50.864;5.176;2023-04-24T01:44:03;15.57;;;11.93;;
19940;SDS011;10132;50.864;5.176;2023-04-24T01:46:07;16.50;;;11.20;;
19940;SDS011;10132;50.864;5.176;2023-04-24T01:48:09;18.73;;;10.83;;
19940;SDS011;10132;50.864;5.176;2023-04-24T01:50:12;16.70;;;11.97;;
19940;SDS011;10132;50.864;5.176;2023-04-24T01:52:14;20.33;;;12.00;;
19940;SDS011;10132;50.864;5.176;2023-04-24T01:54:16;17.67;;;11.70;;
19940;SDS011;10132;50.864;5.176;2023-04-24T01:56:18;21.90;;;12.70;;
19940;SDS011;10132;50.864;5.176;2023-04-24T01:58:22;20.57;;;12.47;;
19940;SDS011;10132;50.864;5.176;2023-04-24T02:00:25;17.87;;;12.03;;
19940;SDS011;10132;50.864;5.176;2023-04-24T02:02:28;19.00;;;12.73;;
19940;SDS011;10132;50.864;5.176;2023-04-24T02:04:30;20.43;;;12.27;;
19940;SDS011;10132;50.864;5.176;2023-04-24T02:06:32;18.50;;;12.23;;
19940;SDS011;10132;50.864;5.176;2023-04-24T02:08:34;18.13;;;12.03;;
19940;SDS011;10132;50.864;5.176;2023-04-24T02:10:36;15.93;;;12.43;;
19940;SDS011;10132;50.864;5.176;2023-04-24T02:12:38;18.10;;;11.93;;
19940;SDS011;10132;50.864;5.176;2023-04-24T02:14:40;15.87;;;11.97;;
19940;SDS011;10132;50.864;5.176;2023-04-24T02:16:42;18.63;;;12.23;;
19940;SDS011;10132;50.864;5.176;2023-04-24T02:18:45;16.10;;;12.23;;
19940;SDS011;10132;50.864;5.176;2023-04-24T02:20:47;16.03;;;12.07;;
19940;SDS011;10132;50.864;5.176;2023-04-24T02:22:49;16.10;;;12.53;;
19940;SDS011;10132;50.864;5.176;2023-04-24T02:24:51;17.83;;;12.20;;
19940;SDS011;10132;50.864;5.176;2023-04-24T02:26:53;18.17;;;12.20;;
19940;SDS011;10132;50.864;5.176;2023-04-24T02:28:55;15.33;;;12.43;;
19940;SDS011;10132;50.864;5.176;2023-04-24T02:30:57;17.20;;;12.17;;
19940;SDS011;10132;50.864;5.176;2023-04-24T02:33:00;17.30;;;12.77;;
19940;SDS011;10132;50.864;5.176;2023-04-24T02:35:03;13.80;;;11.30;;
19940;SDS011;10132;50.864;5.176;2023-04-24T02:37:06;19.10;;;12.73;;
19940;SDS011;10132;50.864;5.176;2023-04-24T02:39:08;14.63;;;11.47;;
19940;SDS011;10132;50.864;5.176;2023-04-24T02:41:10;13.50;;;11.57;;
19940;SDS011;10132;50.864;5.176;2023-04-24T02:43:12;15.43;;;11.30;;
19940;SDS011;10132;50.864;5.176;2023-04-24T02:45:14;15.57;;;12.33;;
19940;SDS011;10132;50.864;5.176;2023-04-24T02:47:16;15.87;;;12.33;;
19940;SDS011;10132;50.864;5.176;2023-04-24T02:49:18;16.37;;;12.40;;
19940;SDS011;10132;50.864;5.176;2023-04-24T02:51:21;14.87;;;12.43;;
19940;SDS011;10132;50.864;5.176;2023-04-24T02:53:23;16.00;;;12.93;;
19940;SDS011;10132;50.864;5.176;2023-04-24T02:55:25;16.73;;;13.37;;
19940;SDS011;10132;50.864;5.176;2023-04-24T02:57:27;17.27;;;14.23;;
19940;SDS011;10132;50.864;5.176;2023-04-24T02:59:29;16.47;;;13.27;;
19940;SDS011;10132;50.864;5.176;2023-04-24T03:01:31;16.53;;;13.63;;
19940;SDS011;10132;50.864;5.176;2023-04-24T03:03:33;16.20;;;14.23;;
19940;SDS011;10132;50.864;5.176;2023-04-24T03:05:35;18.77;;;12.80;;
19940;SDS011;10132;50.864;5.176;2023-04-24T03:07:39;14.07;;;11.83;;
19940;SDS011;10132;50.864;5.176;2023-04-24T03:09:41;16.50;;;13.07;;
19940;SDS011;10132;50.864;5.176;2023-04-24T03:11:42;16.07;;;12.13;;
19940;SDS011;10132;50.864;5.176;2023-04-24T03:13:44;17.50;;;13.20;;
19940;SDS011;10132;50.864;5.176;2023-04-24T03:15:46;16.20;;;12.33;;
19940;SDS011;10132;50.864;5.176;2023-04-24T03:17:48;17.50;;;12.40;;
19940;SDS011;10132;50.864;5.176;2023-04-24T03:19:50;18.27;;;13.17;;
19940;SDS011;10132;50.864;5.176;2023-04-24T03:21:52;16.57;;;13.30;;
19940;SDS011;10132;50.864;5.176;2023-04-24T03:23:55;17.93;;;13.00;;
19940;SDS011;10132;50.864;5.176;2023-04-24T03:25:57;15.60;;;13.23;;
19940;SDS011;10132;50.864;5.176;2023-04-24T03:27:59;14.43;;;12.33;;
19940;SDS011;10132;50.864;5.176;2023-04-24T03:30:01;20.23;;;12.93;;
19940;SDS011;10132;50.864;5.176;2023-04-24T03:32:03;19.03;;;12.43;;
19940;SDS011;10132;50.864;5.176;2023-04-24T03:34:05;18.43;;;12.37;;
19940;SDS011;10132;50.864;5.176;2023-04-24T03:36:07;19.60;;;12.37;;
19940;SDS011;10132;50.864;5.176;2023-04-24T03:38:09;17.97;;;11.80;;
19940;SDS011;10132;50.864;5.176;2023-04-24T03:40:12;18.37;;;12.73;;
19940;SDS011;10132;50.864;5.176;2023-04-24T03:42:14;17.30;;;12.33;;
19940;SDS011;10132;50.864;5.176;2023-04-24T03:44:16;16.27;;;12.33;;
19940;SDS011;10132;50.864;5.176;2023-04-24T03:46:18;18.43;;;13.07;;
19940;SDS011;10132;50.864;5.176;2023-04-24T03:48:20;16.50;;;12.37;;
19940;SDS011;10132;50.864;5.176;2023-04-24T03:50:22;13.97;;;12.47;;
19940;SDS011;10132;50.864;5.176;2023-04-24T03:52:24;16.53;;;12.37;;
19940;SDS011;10132;50.864;5.176;2023-04-24T03:54:26;15.60;;;11.87;;
19940;SDS011;10132;50.864;5.176;2023-04-24T03:56:29;16.00;;;12.80;;
19940;SDS011;10132;50.864;5.176;2023-04-24T03:58:31;18.23;;;12.70;;
19940;SDS011;10132;50.864;5.176;2023-04-24T04:00:33;14.20;;;11.90;;
19940;SDS011;10132;50.864;5.176;2023-04-24T04:02:37;16.30;;;12.80;;
19940;SDS011;10132;50.864;5.176;2023-04-24T04:04:39;18.13;;;12.17;;
19940;SDS011;10132;50.864;5.176;2023-04-24T04:06:41;14.60;;;10.87;;
19940;SDS011;10132;50.864;5.176;2023-04-24T04:08:44;15.57;;;10.90;;
19940;SDS011;10132;50.864;5.176;2023-04-24T04:10:46;19.97;;;11.63;;
19940;SDS011;10132;50.864;5.176;2023-04-24T04:12:49;11.33;;;10.10;;
19940;SDS011;10132;50.864;5.176;2023-04-24T04:14:51;15.57;;;10.83;;
19940;SDS011;10132;50.864;5.176;2023-04-24T04:16:53;13.73;;;10.30;;
19940;SDS011;10132;50.864;5.176;2023-04-24T04:18:55;12.23;;;9.73;;
19940;SDS011;10132;50.864;5.176;2023-04-24T04:20:57;14.00;;;10.17;;
19940;SDS011;10132;50.864;5.176;2023-04-24T04:22:58;14.57;;;9.90;;
19940;SDS011;10132;50.864;5.176;2023-04-24T04:25:00;14.43;;;10.83;;
19940;SDS011;10132;50.864;5.176;2023-04-24T04:27:02;13.07;;;10.83;;
19940;SDS011;10132;50.864;5.176;2023-04-24T04:29:06;13.13;;;10.70;;
19940;SDS011;10132;50.864;5.176;2023-04-24T04:31:08;14.13;;;10.90;;
19940;SDS011;10132;50.864;5.176;2023-04-24T04:33:10;16.53;;;11.07;;
19940;SDS011;10132;50.864;5.176;2023-04-24T04:35:12;14.80;;;11.63;;
19940;SDS011;10132;50.864;5.176;2023-04-24T04:37:14;14.57;;;11.23;;
19940;SDS011;10132;50.864;5.176;2023-04-24T04:39:16;13.20;;;10.70;;
19940;SDS011;10132;50.864;5.176;2023-04-24T04:41:18;14.80;;;10.87;;
19940;SDS011;10132;50.864;5.176;2023-04-24T04:43:20;14.33;;;11.30;;
19940;SDS011;10132;50.864;5.176;2023-04-24T04:45:23;14.67;;;10.90;;
19940;SDS011;10132;50.864;5.176;2023-04-24T04:47:27;11.47;;;10.27;;
19940;SDS011;10132;50.864;5.176;2023-04-24T04:49:32;11.70;;;9.57;;
19940;SDS011;10132;50.864;5.176;2023-04-24T04:51:34;12.67;;;11.20;;
19940;SDS011;10132;50.864;5.176;2023-04-24T04:53:36;13.13;;;11.47;;
19940;SDS011;10132;50.864;5.176;2023-04-24T04:55:38;11.70;;;10.03;;
19940;SDS011;10132;50.864;5.176;2023-04-24T04:57:40;13.83;;;10.40;;
19940;SDS011;10132;50.864;5.176;2023-04-24T04:59:42;12.30;;;9.93;;
19940;SDS011;10132;50.864;5.176;2023-04-24T05:01:46;12.07;;;9.27;;
19940;SDS011;10132;50.864;5.176;2023-04-24T05:03:48;12.23;;;9.40;;
19940;SDS011;10132;50.864;5.176;2023-04-24T05:05:50;12.80;;;10.53;;
19940;SDS011;10132;50.864;5.176;2023-04-24T05:07:52;12.77;;;10.07;;
19940;SDS011;10132;50.864;5.176;2023-04-24T05:09:54;11.97;;;9.30;;
19940;SDS011;10132;50.864;5.176;2023-04-24T05:11:56;10.40;;;9.30;;
19940;SDS011;10132;50.864;5.176;2023-04-24T05:13:57;11.40;;;9.37;;
19940;SDS011;10132;50.864;5.176;2023-04-24T05:15:59;10.10;;;8.80;;
19940;SDS011;10132;50.864;5.176;2023-04-24T05:18:03;12.23;;;9.30;;
19940;SDS011;10132;50.864;5.176;2023-04-24T05:20:06;9.30;;;8.30;;
19940;SDS011;10132;50.864;5.176;2023-04-24T05:22:08;10.50;;;8.07;;
19940;SDS011;10132;50.864;5.176;2023-04-24T05:24:11;11.50;;;8.87;;
19940;SDS011;10132;50.864;5.176;2023-04-24T05:26:13;11.10;;;8.50;;
19940;SDS011;10132;50.864;5.176;2023-04-24T05:28:15;9.77;;;8.40;;
19940;SDS011;10132;50.864;5.176;2023-04-24T05:30:17;10.83;;;8.27;;
19940;SDS011;10132;50.864;5.176;2023-04-24T05:32:19;7.90;;;7.10;;
19940;SDS011;10132;50.864;5.176;2023-04-24T05:34:23;10.23;;;6.90;;
19940;SDS011;10132;50.864;5.176;2023-04-24T05:36:25;8.30;;;7.07;;
19940;SDS011;10132;50.864;5.176;2023-04-24T05:38:27;8.23;;;7.27;;
19940;SDS011;10132;50.864;5.176;2023-04-24T05:40:29;9.10;;;7.73;;
19940;SDS011;10132;50.864;5.176;2023-04-24T05:42:31;9.67;;;8.17;;
19940;SDS011;10132;50.864;5.176;2023-04-24T05:44:33;10.03;;;8.47;;
19940;SDS011;10132;50.864;5.176;2023-04-24T05:46:35;10.63;;;8.13;;
19940;SDS011;10132;50.864;5.176;2023-04-24T05:48:36;9.27;;;8.37;;
19940;SDS011;10132;50.864;5.176;2023-04-24T05:50:40;13.23;;;8.37;;
19940;SDS011;10132;50.864;5.176;2023-04-24T05:52:42;10.20;;;8.37;;
19940;SDS011;10132;50.864;5.176;2023-04-24T05:54:44;10.47;;;8.40;;
19940;SDS011;10132;50.864;5.176;2023-04-24T05:56:45;12.03;;;9.20;;
19940;SDS011;10132;50.864;5.176;2023-04-24T05:58:47;10.80;;;8.67;;
19940;SDS011;10132;50.864;5.176;2023-04-24T06:00:49;10.50;;;8.80;;
19940;SDS011;10132;50.864;5.176;2023-04-24T06:02:52;12.60;;;10.67;;
19940;SDS011;10132;50.864;5.176;2023-04-24T06:04:54;11.87;;;10.60;;
19940;SDS011;10132;50.864;5.176;2023-04-24T06:06:58;12.13;;;10.53;;
19940;SDS011;10132;50.864;5.176;2023-04-24T06:09:00;14.37;;;11.13;;
19940;SDS011;10132;50.864;5.176;2023-04-24T06:11:03;13.07;;;10.37;;
19940;SDS011;10132;50.864;5.176;2023-04-24T06:13:05;15.80;;;10.33;;
19940;SDS011;10132;50.864;5.176;2023-04-24T06:15:07;13.63;;;11.43;;
19940;SDS011;10132;50.864;5.176;2023-04-24T06:17:09;13.67;;;10.93;;
19940;SDS011;10132;50.864;5.176;2023-04-24T06:19:11;12.10;;;9.73;;
19940;SDS011;10132;50.864;5.176;2023-04-24T06:23:18;15.13;;;9.43;;
19940;SDS011;10132;50.864;5.176;2023-04-24T06:25:20;11.27;;;9.57;;
19940;SDS011;10132;50.864;5.176;2023-04-24T06:27:22;12.37;;;7.53;;
19940;SDS011;10132;50.864;5.176;2023-04-24T06:29:24;11.20;;;9.33;;
19940;SDS011;10132;50.864;5.176;2023-04-24T06:31:26;12.23;;;8.77;;
19940;SDS011;10132;50.864;5.176;2023-04-24T06:33:28;12.23;;;9.30;;
19940;SDS011;10132;50.864;5.176;2023-04-24T06:35:30;12.10;;;9.50;;
19940;SDS011;10132;50.864;5.176;2023-04-24T06:37:32;14.00;;;9.83;;
19940;SDS011;10132;50.864;5.176;2023-04-24T06:39:35;12.50;;;9.60;;
19940;SDS011;10132;50.864;5.176;2023-04-24T06:41:37;13.07;;;10.40;;
19940;SDS011;10132;50.864;5.176;2023-04-24T06:43:40;12.33;;;9.93;;
19940;SDS011;10132;50.864;5.176;2023-04-24T06:45:42;14.43;;;10.13;;
19940;SDS011;10132;50.864;5.176;2023-04-24T06:47:45;13.53;;;10.50;;
19940;SDS011;10132;50.864;5.176;2023-04-24T06:49:47;12.73;;;9.87;;
19940;SDS011;10132;50.864;5.176;2023-04-24T06:51:51;13.43;;;9.70;;
19940;SDS011;10132;50.864;5.176;2023-04-24T06:53:52;13.20;;;9.70;;
19940;SDS011;10132;50.864;5.176;2023-04-24T06:55:57;14.97;;;10.83;;
19940;SDS011;10132;50.864;5.176;2023-04-24T06:57:59;15.87;;;11.50;;
19940;SDS011;10132;50.864;5.176;2023-04-24T07:00:01;17.27;;;12.30;;
19940;SDS011;10132;50.864;5.176;2023-04-24T07:02:05;22.27;;;13.97;;
19940;SDS011;10132;50.864;5.176;2023-04-24T07:04:07;18.17;;;12.90;;
19940;SDS011;10132;50.864;5.176;2023-04-24T07:06:09;16.80;;;12.33;;
19940;SDS011;10132;50.864;5.176;2023-04-24T07:08:12;18.83;;;13.07;;
19940;SDS011;10132;50.864;5.176;2023-04-24T07:10:16;18.03;;;12.37;;
19940;SDS011;10132;50.864;5.176;2023-04-24T07:12:19;15.73;;;11.33;;
19940;SDS011;10132;50.864;5.176;2023-04-24T07:14:21;19.53;;;14.40;;
19940;SDS011;10132;50.864;5.176;2023-04-24T07:16:23;13.17;;;11.50;;
19940;SDS011;10132;50.864;5.176;2023-04-24T07:18:25;14.60;;;11.37;;
19940;SDS011;10132;50.864;5.176;2023-04-24T07:20:27;17.00;;;11.27;;
19940;SDS011;10132;50.864;5.176;2023-04-24T07:22:29;18.27;;;12.23;;
19940;SDS011;10132;50.864;5.176;2023-04-24T07:24:31;15.10;;;12.67;;
19940;SDS011;10132;50.864;5.176;2023-04-24T07:26:33;16.20;;;13.53;;
19940;SDS011;10132;50.864;5.176;2023-04-24T07:28:37;17.50;;;13.03;;
19940;SDS011;10132;50.864;5.176;2023-04-24T07:30:38;17.03;;;13.70;;
19940;SDS011;10132;50.864;5.176;2023-04-24T07:32:40;18.60;;;14.43;;
19940;SDS011;10132;50.864;5.176;2023-04-24T07:34:42;20.90;;;14.67;;
19940;SDS011;10132;50.864;5.176;2023-04-24T07:36:44;19.23;;;14.10;;
19940;SDS011;10132;50.864;5.176;2023-04-24T07:38:47;19.40;;;14.50;;
19940;SDS011;10132;50.864;5.176;2023-04-24T07:40:49;19.33;;;15.07;;
19940;SDS011;10132;50.864;5.176;2023-04-24T07:42:51;20.60;;;15.53;;
19940;SDS011;10132;50.864;5.176;2023-04-24T07:44:55;25.00;;;15.57;;
19940;SDS011;10132;50.864;5.176;2023-04-24T07:46:57;25.43;;;16.17;;
19940;SDS011;10132;50.864;5.176;2023-04-24T07:48:58;23.23;;;14.87;;
19940;SDS011;10132;50.864;5.176;2023-04-24T07:51:01;18.77;;;15.00;;
19940;SDS011;10132;50.864;5.176;2023-04-24T07:53:03;19.63;;;14.20;;
19940;SDS011;10132;50.864;5.176;2023-04-24T07:55:05;22.67;;;15.43;;
19940;SDS011;10132;50.864;5.176;2023-04-24T07:57:07;21.03;;;15.60;;
19940;SDS011;10132;50.864;5.176;2023-04-24T07:59:09;23.03;;;14.27;;
19940;SDS011;10132;50.864;5.176;2023-04-24T08:01:13;19.70;;;14.03;;
19940;SDS011;10132;50.864;5.176;2023-04-24T08:03:15;25.40;;;14.53;;
19940;SDS011;10132;50.864;5.176;2023-04-24T08:05:19;21.57;;;13.70;;
19940;SDS011;10132;50.864;5.176;2023-04-24T08:07:21;21.20;;;13.37;;
19940;SDS011;10132;50.864;5.176;2023-04-24T08:09:24;16.73;;;11.53;;
19940;SDS011;10132;50.864;5.176;2023-04-24T08:11:26;19.97;;;12.43;;
19940;SDS011;10132;50.864;5.176;2023-04-24T08:13:28;19.93;;;11.43;;
19940;SDS011;10132;50.864;5.176;2023-04-24T08:15:30;16.10;;;10.37;;
19940;SDS011;10132;50.864;5.176;2023-04-24T08:17:33;17.00;;;10.77;;
19940;SDS011;10132;50.864;5.176;2023-04-24T08:19:36;14.37;;;9.37;;
19940;SDS011;10132;50.864;5.176;2023-04-24T08:21:37;13.60;;;8.57;;
19940;SDS011;10132;50.864;5.176;2023-04-24T08:23:39;13.90;;;7.80;;
19940;SDS011;10132;50.864;5.176;2023-04-24T08:25:42;14.13;;;7.53;;
19940;SDS011;10132;50.864;5.176;2023-04-24T08:27:44;12.57;;;6.97;;
19940;SDS011;10132;50.864;5.176;2023-04-24T08:29:46;12.07;;;6.70;;
19940;SDS011;10132;50.864;5.176;2023-04-24T08:31:48;13.70;;;6.03;;
19940;SDS011;10132;50.864;5.176;2023-04-24T08:33:51;12.23;;;6.33;;
19940;SDS011;10132;50.864;5.176;2023-04-24T08:35:53;14.57;;;6.97;;
19940;SDS011;10132;50.864;5.176;2023-04-24T08:37:55;12.67;;;6.00;;
19940;SDS011;10132;50.864;5.176;2023-04-24T08:39:57;13.27;;;7.20;;
19940;SDS011;10132;50.864;5.176;2023-04-24T08:41:59;12.33;;;6.20;;
19940;SDS011;10132;50.864;5.176;2023-04-24T08:44:07;16.33;;;7.30;;
19940;SDS011;10132;50.864;5.176;2023-04-24T08:46:10;14.50;;;7.20;;
19940;SDS011;10132;50.864;5.176;2023-04-24T08:48:14;12.60;;;6.63;;
19940;SDS011;10132;50.864;5.176;2023-04-24T08:50:19;13.97;;;7.27;;
19940;SDS011;10132;50.864;5.176;2023-04-24T08:52:21;14.17;;;6.90;;
19940;SDS011;10132;50.864;5.176;2023-04-24T08:54:24;13.73;;;6.63;;
19940;SDS011;10132;50.864;5.176;2023-04-24T08:56:26;13.57;;;6.30;;
19940;SDS011;10132;50.864;5.176;2023-04-24T08:58:31;11.77;;;5.80;;
19940;SDS011;10132;50.864;5.176;2023-04-24T09:00:33;9.47;;;4.90;;
19940;SDS011;10132;50.864;5.176;2023-04-24T09:02:35;10.47;;;5.50;;
19940;SDS011;10132;50.864;5.176;2023-04-24T09:04:37;13.30;;;5.93;;
19940;SDS011;10132;50.864;5.176;2023-04-24T09:06:41;11.03;;;5.10;;
19940;SDS011;10132;50.864;5.176;2023-04-24T09:08:44;10.77;;;5.47;;
19940;SDS011;10132;50.864;5.176;2023-04-24T09:10:47;11.77;;;5.87;;
19940;SDS011;10132;50.864;5.176;2023-04-24T09:12:49;11.70;;;6.13;;
19940;SDS011;10132;50.864;5.176;2023-04-24T09:14:51;12.17;;;6.53;;
19940;SDS011;10132;50.864;5.176;2023-04-24T09:16:55;11.73;;;6.60;;
19940;SDS011;10132;50.864;5.176;2023-04-24T09:18:57;13.57;;;6.53;;
19940;SDS011;10132;50.864;5.176;2023-04-24T09:21:02;13.60;;;6.07;;
19940;SDS011;10132;50.864;5.176;2023-04-24T09:23:09;12.97;;;7.03;;
19940;SDS011;10132;50.864;5.176;2023-04-24T09:25:16;10.67;;;6.03;;
19940;SDS011;10132;50.864;5.176;2023-04-24T09:27:18;13.17;;;6.30;;
19940;SDS011;10132;50.864;5.176;2023-04-24T09:29:20;12.83;;;6.23;;
19940;SDS011;10132;50.864;5.176;2023-04-24T09:31:22;9.33;;;5.30;;
19940;SDS011;10132;50.864;5.176;2023-04-24T09:33:24;11.50;;;6.00;;
19940;SDS011;10132;50.864;5.176;2023-04-24T09:35:26;11.03;;;6.00;;
19940;SDS011;10132;50.864;5.176;2023-04-24T09:37:28;15.63;;;6.23;;
19940;SDS011;10132;50.864;5.176;2023-04-24T09:39:32;11.90;;;6.43;;
19940;SDS011;10132;50.864;5.176;2023-04-24T09:41:34;14.03;;;6.83;;
19940;SDS011;10132;50.864;5.176;2023-04-24T09:43:36;13.83;;;7.10;;
19940;SDS011;10132;50.864;5.176;2023-04-24T09:45:39;11.80;;;6.47;;
19940;SDS011;10132;50.864;5.176;2023-04-24T09:47:41;11.20;;;6.00;;
19940;SDS011;10132;50.864;5.176;2023-04-24T09:49:43;13.00;;;6.03;;
19940;SDS011;10132;50.864;5.176;2023-04-24T09:51:45;14.73;;;6.10;;
19940;SDS011;10132;50.864;5.176;2023-04-24T09:53:47;11.23;;;6.20;;
19940;SDS011;10132;50.864;5.176;2023-04-24T09:55:51;12.83;;;6.33;;
19940;SDS011;10132;50.864;5.176;2023-04-24T09:57:54;14.50;;;7.87;;
19940;SDS011;10132;50.864;5.176;2023-04-24T10:00:00;20.20;;;10.50;;
19940;SDS011;10132;50.864;5.176;2023-04-24T10:02:02;15.40;;;9.07;;
19940;SDS011;10132;50.864;5.176;2023-04-24T10:04:17;15.13;;;6.53;;
19940;SDS011;10132;50.864;5.176;2023-04-24T10:06:20;14.77;;;6.40;;
19940;SDS011;10132;50.864;5.176;2023-04-24T10:08:22;12.87;;;5.37;;
19940;SDS011;10132;50.864;5.176;2023-04-24T10:10:25;12.67;;;6.73;;
19940;SDS011;10132;50.864;5.176;2023-04-24T10:12:29;12.70;;;6.10;;
19940;SDS011;10132;50.864;5.176;2023-04-24T10:14:31;12.47;;;5.43;;
19940;SDS011;10132;50.864;5.176;2023-04-24T10:16:33;10.07;;;5.60;;
19940;SDS011;10132;50.864;5.176;2023-04-24T10:18:36;13.23;;;5.87;;
19940;SDS011;10132;50.864;5.176;2023-04-24T10:20:39;10.23;;;5.60;;
19940;SDS011;10132;50.864;5.176;2023-04-24T10:22:41;13.10;;;6.47;;
19940;SDS011;10132;50.864;5.176;2023-04-24T10:24:46;14.27;;;5.47;;
19940;SDS011;10132;50.864;5.176;2023-04-24T10:26:50;11.67;;;5.60;;
19940;SDS011;10132;50.864;5.176;2023-04-24T10:28:53;11.73;;;5.67;;
19940;SDS011;10132;50.864;5.176;2023-04-24T10:30:58;11.07;;;5.73;;
19940;SDS011;10132;50.864;5.176;2023-04-24T10:33:01;9.57;;;5.00;;
19940;SDS011;10132;50.864;5.176;2023-04-24T10:35:04;10.77;;;5.20;;
19940;SDS011;10132;50.864;5.176;2023-04-24T10:37:08;11.30;;;5.27;;
19940;SDS011;10132;50.864;5.176;2023-04-24T10:39:12;15.33;;;5.40;;
19940;SDS011;10132;50.864;5.176;2023-04-24T10:41:16;11.37;;;5.17;;
19940;SDS011;10132;50.864;5.176;2023-04-24T10:43:23;10.90;;;4.87;;
19940;SDS011;10132;50.864;5.176;2023-04-24T10:45:26;7.90;;;4.30;;
19940;SDS011;10132;50.864;5.176;2023-04-24T10:47:28;10.97;;;4.77;;
19940;SDS011;10132;50.864;5.176;2023-04-24T10:49:31;10.00;;;4.60;;
19940;SDS011;10132;50.864;5.176;2023-04-24T10:51:46;6.53;;;3.27;;
19940;SDS011;10132;50.864;5.176;2023-04-24T10:53:50;8.53;;;3.93;;
19940;SDS011;10132;50.864;5.176;2023-04-24T10:55:56;7.90;;;3.50;;
19940;SDS011;10132;50.864;5.176;2023-04-24T10:58:03;7.13;;;3.23;;
19940;SDS011;10132;50.864;5.176;2023-04-24T11:00:15;5.50;;;3.43;;
19940;SDS011;10132;50.864;5.176;2023-04-24T11:02:35;10.17;;;3.60;;
19940;SDS011;10132;50.864;5.176;2023-04-24T11:04:37;6.90;;;3.37;;
19940;SDS011;10132;50.864;5.176;2023-04-24T11:06:40;7.60;;;3.50;;
19940;SDS011;10132;50.864;5.176;2023-04-24T11:08:43;7.10;;;3.43;;
19940;SDS011;10132;50.864;5.176;2023-04-24T11:10:47;9.50;;;3.60;;
19940;SDS011;10132;50.864;5.176;2023-04-24T11:12:57;7.33;;;3.20;;
19940;SDS011;10132;50.864;5.176;2023-04-24T11:14:59;6.37;;;2.87;;
19940;SDS011;10132;50.864;5.176;2023-04-24T11:17:03;4.17;;;3.10;;
19940;SDS011;10132;50.864;5.176;2023-04-24T11:19:07;7.40;;;3.77;;
19940;SDS011;10132;50.864;5.176;2023-04-24T11:21:10;8.53;;;3.70;;
19940;SDS011;10132;50.864;5.176;2023-04-24T11:23:13;8.27;;;3.63;;
19940;SDS011;10132;50.864;5.176;2023-04-24T11:25:15;8.17;;;4.00;;
19940;SDS011;10132;50.864;5.176;2023-04-24T11:27:19;9.20;;;4.33;;
19940;SDS011;10132;50.864;5.176;2023-04-24T11:29:22;8.73;;;4.10;;
19940;SDS011;10132;50.864;5.176;2023-04-24T11:31:39;7.73;;;3.83;;
19940;SDS011;10132;50.864;5.176;2023-04-24T11:33:42;9.50;;;4.20;;
19940;SDS011;10132;50.864;5.176;2023-04-24T11:35:45;7.10;;;3.60;;
19940;SDS011;10132;50.864;5.176;2023-04-24T11:37:49;9.07;;;3.50;;
19940;SDS011;10132;50.864;5.176;2023-04-24T11:39:53;8.30;;;3.77;;
19940;SDS011;10132;50.864;5.176;2023-04-24T11:42:01;9.07;;;4.17;;
19940;SDS011;10132;50.864;5.176;2023-04-24T11:44:05;5.67;;;3.47;;
19940;SDS011;10132;50.864;5.176;2023-04-24T11:46:08;11.17;;;4.07;;
19940;SDS011;10132;50.864;5.176;2023-04-24T11:48:11;5.80;;;3.70;;
19940;SDS011;10132;50.864;5.176;2023-04-24T11:50:13;8.43;;;4.00;;
19940;SDS011;10132;50.864;5.176;2023-04-24T11:52:18;5.70;;;3.87;;
19940;SDS011;10132;50.864;5.176;2023-04-24T11:54:21;6.70;;;4.60;;
19940;SDS011;10132;50.864;5.176;2023-04-24T11:56:23;8.10;;;3.70;;
19940;SDS011;10132;50.864;5.176;2023-04-24T11:58:26;6.90;;;3.80;;
19940;SDS011;10132;50.864;5.176;2023-04-24T12:00:28;7.70;;;4.20;;
19940;SDS011;10132;50.864;5.176;2023-04-24T12:02:33;12.17;;;4.23;;
19940;SDS011;10132;50.864;5.176;2023-04-24T12:04:38;5.60;;;3.63;;
19940;SDS011;10132;50.864;5.176;2023-04-24T12:09:03;7.43;;;3.57;;